createdAt,value
2018-05-26T00:00:28.529Z,93.00
2018-05-26T00:02:54.801Z,93.20
2018-05-26T00:05:21.113Z,93.30
2018-05-26T00:07:48.163Z,93.40
2018-05-26T00:10:15.191Z,93.50
2018-05-26T00:12:41.473Z,93.40
2018-05-26T00:15:07.775Z,93.50
2018-05-26T00:17:34.075Z,93.60
2018-05-26T00:20:00.372Z,93.60
2018-05-26T00:22:26.610Z,93.70
2018-05-26T00:24:53.640Z,93.60
2018-05-26T00:27:19.910Z,93.60
2018-05-26T00:29:46.193Z,93.20
2018-05-26T00:32:12.470Z,93.80
2018-05-26T00:34:39.466Z,93.90
2018-05-26T00:37:05.746Z,93.90
2018-05-26T00:39:32.765Z,93.80
2018-05-26T00:41:59.048Z,93.80
2018-05-26T00:44:26.082Z,94.10
2018-05-26T00:46:52.337Z,94.10
2018-05-26T00:49:19.338Z,93.90
2018-05-26T00:51:45.640Z,93.90
2018-05-26T00:54:11.927Z,94.20
2018-05-26T00:56:39.695Z,94.10
2018-05-26T00:59:06.002Z,94.10
2018-05-26T01:01:32.342Z,94.20
2018-05-26T01:03:58.636Z,94.40
2018-05-26T01:06:25.645Z,94.50
2018-05-26T01:08:51.973Z,94.10
2018-05-26T01:11:18.313Z,94.40
2018-05-26T01:13:44.593Z,94.60
2018-05-26T01:16:11.646Z,94.50
2018-05-26T01:18:38.667Z,94.40
2018-05-26T01:21:05.004Z,94.50
2018-05-26T01:23:31.423Z,94.80
2018-05-26T01:25:57.729Z,95.00
2018-05-26T01:28:24.033Z,94.90
2018-05-26T01:30:50.343Z,95.10
2018-05-26T01:33:16.662Z,95.00
2018-05-26T01:35:42.937Z,95.00
2018-05-26T01:38:09.921Z,95.20
2018-05-26T01:40:36.238Z,95.20
2018-05-26T01:43:03.253Z,95.20
2018-05-26T01:45:29.541Z,95.20
2018-05-26T01:47:59.546Z,95.00
2018-05-26T01:50:26.665Z,95.20
2018-05-26T01:52:52.954Z,95.20
2018-05-26T01:55:19.969Z,95.30
2018-05-26T01:57:46.276Z,95.40
2018-05-26T02:00:12.565Z,95.20
2018-05-26T02:02:39.577Z,95.20
2018-05-26T02:05:05.870Z,94.80
2018-05-26T02:07:32.898Z,95.30
2018-05-26T02:09:59.925Z,95.60
2018-05-26T02:12:26.227Z,95.60
2018-05-26T02:14:52.462Z,94.80
2018-05-26T02:17:18.750Z,95.00
2018-05-26T02:19:44.976Z,95.20
2018-05-26T02:22:11.262Z,95.50
2018-05-26T02:24:37.624Z,94.30
2018-05-26T02:27:03.945Z,95.30
2018-05-26T02:29:30.260Z,94.10
2018-05-26T02:31:56.550Z,95.40
2018-05-26T02:34:22.861Z,95.60
2018-05-26T02:36:49.194Z,95.60
2018-05-26T02:39:15.534Z,95.60
2018-05-26T02:41:41.852Z,95.60
2018-05-26T02:44:08.148Z,95.60
2018-05-26T02:46:34.470Z,95.00
2018-05-26T02:49:00.743Z,95.20
2018-05-26T02:51:27.037Z,95.60
2018-05-26T02:53:53.346Z,95.20
2018-05-26T02:56:19.616Z,95.90
2018-05-26T02:58:45.905Z,95.30
2018-05-26T03:01:12.202Z,96.20
2018-05-26T03:03:39.979Z,95.70
2018-05-26T03:06:12.477Z,95.60
2018-05-26T03:08:45.741Z,96.10
2018-05-26T03:11:18.083Z,96.10
2018-05-26T03:13:50.365Z,96.30
2018-05-26T03:16:19.526Z,96.40
2018-05-26T03:18:45.837Z,96.50
2018-05-26T03:21:12.104Z,96.70
2018-05-26T03:23:38.372Z,96.30
2018-05-26T03:26:04.670Z,96.60
2018-05-26T03:28:31.674Z,96.50
2018-05-26T03:30:57.924Z,96.50
2018-05-26T03:33:24.191Z,96.50
2018-05-26T03:35:51.198Z,96.70
2018-05-26T03:38:17.505Z,96.70
2018-05-26T03:40:43.811Z,96.90
2018-05-26T03:43:10.813Z,97.00
2018-05-26T03:45:37.097Z,96.90
2018-05-26T03:48:04.120Z,96.90
2018-05-26T03:50:31.145Z,96.30
2018-05-26T03:52:57.397Z,96.30
2018-05-26T03:55:42.986Z,96.20
2018-05-26T03:58:27.590Z,96.20
2018-05-26T04:00:53.853Z,96.60
2018-05-26T04:03:20.144Z,96.70
2018-05-26T04:05:47.186Z,96.70
2018-05-26T04:08:14.993Z,96.70
2018-05-26T04:10:41.228Z,96.70
2018-05-26T04:13:07.525Z,96.60
2018-05-26T04:15:34.561Z,96.60
2018-05-26T04:18:00.844Z,96.60
2018-05-26T04:20:27.176Z,96.50
2018-05-26T04:22:53.421Z,96.30
2018-05-26T04:25:19.735Z,96.40
2018-05-26T04:27:46.765Z,96.30
2018-05-26T04:30:13.029Z,96.30
2018-05-26T04:32:39.334Z,96.00
2018-05-26T04:35:06.337Z,95.90
2018-05-26T04:37:32.577Z,95.90
2018-05-26T04:39:58.853Z,95.40
2018-05-26T04:42:25.109Z,95.40
2018-05-26T04:44:52.157Z,94.90
2018-05-26T04:47:19.205Z,95.00
2018-05-26T04:49:46.249Z,94.50
2018-05-26T04:52:12.534Z,94.50
2018-05-26T04:54:38.797Z,94.00
2018-05-26T04:57:05.044Z,94.10
2018-05-26T04:59:31.337Z,93.30
2018-05-26T05:01:57.617Z,93.10
2018-05-26T05:04:23.920Z,91.40
2018-05-26T05:06:50.218Z,89.90
2018-05-26T05:09:17.257Z,83.70
2018-05-26T05:11:43.550Z,83.70
2018-05-26T05:14:09.880Z,82.00
2018-05-26T05:16:36.213Z,82.30
2018-05-26T05:19:02.477Z,81.70
2018-05-26T05:21:28.758Z,81.50
2018-05-26T05:23:55.786Z,77.00
2018-05-26T05:26:22.078Z,76.90
2018-05-26T05:28:48.373Z,73.60
2018-05-26T05:31:15.366Z,71.40
2018-05-26T05:33:41.633Z,70.40
2018-05-26T05:36:07.890Z,70.10
2018-05-26T05:38:34.141Z,69.90
2018-05-26T05:41:01.162Z,72.20
2018-05-26T05:43:28.185Z,73.10
2018-05-26T05:45:54.437Z,73.00
2018-05-26T05:48:20.733Z,73.90
2018-05-26T05:50:47.003Z,73.80
2018-05-26T05:53:13.277Z,74.00
2018-05-26T05:55:40.307Z,71.60
2018-05-26T05:58:06.528Z,71.50
2018-05-26T06:00:32.819Z,67.70
2018-05-26T06:02:59.097Z,67.40
2018-05-26T06:05:25.388Z,66.70
2018-05-26T06:07:52.386Z,63.60
2018-05-26T06:10:18.653Z,63.50
2018-05-26T06:12:44.954Z,60.70
2018-05-26T06:15:11.260Z,62.80
2018-05-26T06:17:37.538Z,60.00
2018-05-26T06:20:03.863Z,62.10
2018-05-26T06:22:30.137Z,64.20
2018-05-26T06:24:57.198Z,66.00
2018-05-26T06:27:23.501Z,65.50
2018-05-26T06:29:50.631Z,65.90
2018-05-26T06:32:16.935Z,65.50
2018-05-26T06:34:43.984Z,67.90
2018-05-26T06:37:10.972Z,67.90
2018-05-26T06:39:37.275Z,67.80
2018-05-26T06:42:04.306Z,68.40
2018-05-26T06:44:32.043Z,69.80
2018-05-26T06:46:58.341Z,69.80
2018-05-26T06:49:24.668Z,68.30
2018-05-26T06:51:51.679Z,68.90
2018-05-26T06:54:17.981Z,69.00
2018-05-26T06:56:44.306Z,68.10
2018-05-26T06:59:10.608Z,69.00
2018-05-26T07:01:36.903Z,68.40
2018-05-26T07:04:03.251Z,66.60
2018-05-26T07:06:29.583Z,66.30
2018-05-26T07:08:55.886Z,65.80
2018-05-26T07:11:22.190Z,66.70
2018-05-26T07:13:48.533Z,66.60
2018-05-26T07:16:14.791Z,67.70
2018-05-26T07:18:41.847Z,66.70
2018-05-26T07:21:08.904Z,68.10
2018-05-26T07:23:35.933Z,68.40
2018-05-26T07:26:02.989Z,70.30
2018-05-26T07:28:29.974Z,69.40
2018-05-26T07:30:56.299Z,68.60
2018-05-26T07:33:22.605Z,68.30
2018-05-26T07:35:48.878Z,69.20
2018-05-26T07:38:15.162Z,68.10
2018-05-26T07:40:41.478Z,68.10
2018-05-26T07:43:07.742Z,68.50
2018-05-26T07:45:34.040Z,68.20
2018-05-26T07:48:00.333Z,68.10
2018-05-26T07:50:27.391Z,69.00
2018-05-26T07:52:54.456Z,68.80
2018-05-26T07:55:20.765Z,68.80
2018-05-26T07:57:47.167Z,69.20
2018-05-26T08:00:13.452Z,69.40
2018-05-26T08:02:39.761Z,68.30
2018-05-26T08:05:06.242Z,67.70
2018-05-26T08:07:32.510Z,68.20
2018-05-26T08:09:58.766Z,67.30
2018-05-26T08:12:25.119Z,68.00
2018-05-26T08:14:51.418Z,67.40
2018-05-26T08:17:17.791Z,67.50
2018-05-26T08:19:44.057Z,66.50
2018-05-26T08:22:11.061Z,67.30
2018-05-26T08:24:37.391Z,67.30
2018-05-26T08:27:03.727Z,66.30
2018-05-26T08:29:30.041Z,65.80
2018-05-26T08:31:56.365Z,66.30
2018-05-26T08:34:22.666Z,66.60
2018-05-26T08:36:48.974Z,65.90
2018-05-26T08:39:15.271Z,67.10
2018-05-26T08:41:42.349Z,67.30
2018-05-26T08:44:08.662Z,67.30
2018-05-26T08:46:34.991Z,66.50
2018-05-26T08:49:02.052Z,66.30
2018-05-26T08:51:28.418Z,66.20
2018-05-26T08:53:54.718Z,66.20
2018-05-26T08:56:21.769Z,64.90
2018-05-26T08:58:48.862Z,63.80
2018-05-26T09:01:15.192Z,63.70
2018-05-26T09:03:41.505Z,63.50
2018-05-26T09:06:07.870Z,63.60
2018-05-26T09:08:34.173Z,63.70
2018-05-26T09:11:01.231Z,63.30
2018-05-26T09:13:27.558Z,63.20
2018-05-26T09:15:54.654Z,60.70
2018-05-26T09:18:21.670Z,61.90
2018-05-26T09:20:47.956Z,62.00
2018-05-26T09:23:14.213Z,60.30
2018-05-26T09:25:41.962Z,59.20
2018-05-26T09:28:08.246Z,59.00
2018-05-26T09:30:35.285Z,59.40
2018-05-26T09:33:02.393Z,59.10
2018-05-26T09:35:28.681Z,59.00
2018-05-26T09:37:55.787Z,59.20
2018-05-26T09:40:22.129Z,59.20
2018-05-26T09:42:48.375Z,58.90
2018-05-26T09:45:14.666Z,57.60
2018-05-26T09:47:40.931Z,56.30
2018-05-26T09:50:07.207Z,56.90
2018-05-26T09:52:34.270Z,55.50
2018-05-26T09:55:01.290Z,52.90
2018-05-26T09:57:27.550Z,52.80
2018-05-26T09:59:54.561Z,49.50
2018-05-26T10:02:20.895Z,49.30
2018-05-26T10:04:47.146Z,47.10
2018-05-26T10:07:13.487Z,48.90
2018-05-26T10:09:39.738Z,49.80
2018-05-26T10:12:06.788Z,47.30
2018-05-26T10:14:33.122Z,47.30
2018-05-26T10:16:59.417Z,47.40
2018-05-26T10:19:25.740Z,45.00
2018-05-26T10:21:52.686Z,44.70
2018-05-26T10:24:18.970Z,44.70
2018-05-26T10:26:45.237Z,42.80
2018-05-26T10:29:12.285Z,38.20
2018-05-26T10:31:38.534Z,38.20
2018-05-26T10:34:05.573Z,36.60
2018-05-26T10:36:31.829Z,36.40
2018-05-26T10:38:58.067Z,36.10
2018-05-26T10:41:25.033Z,33.70
2018-05-26T10:43:51.340Z,33.60
2018-05-26T10:46:24.373Z,33.80
2018-05-26T10:48:50.671Z,33.70
2018-05-26T10:51:17.729Z,30.80
2018-05-26T10:53:44.747Z,31.50
2018-05-26T10:56:10.985Z,31.50
2018-05-26T10:58:37.265Z,30.80
2018-05-26T11:01:03.551Z,30.00
2018-05-26T11:03:29.837Z,29.50
2018-05-26T11:05:56.125Z,29.50
2018-05-26T11:08:22.400Z,28.90
2018-05-26T11:10:49.437Z,29.70
2018-05-26T11:13:16.517Z,30.00
2018-05-26T11:15:42.817Z,30.00
2018-05-26T11:18:09.125Z,30.80
2018-05-26T11:20:35.410Z,30.90
2018-05-26T11:23:02.422Z,29.60
2018-05-26T11:25:28.708Z,29.50
2018-05-26T11:27:55.017Z,29.70
2018-05-26T11:30:21.293Z,29.30
2018-05-26T11:32:47.598Z,29.20
2018-05-26T11:35:14.622Z,27.80
2018-05-26T11:37:40.891Z,27.80
2018-05-26T11:40:07.921Z,27.80
2018-05-26T11:42:34.214Z,27.70
2018-05-26T11:45:00.490Z,28.60
2018-05-26T11:47:26.760Z,28.90
2018-05-26T11:49:53.766Z,28.50
2018-05-26T11:52:20.097Z,28.50
2018-05-26T11:54:46.381Z,27.90
2018-05-26T11:57:13.405Z,27.30
2018-05-26T11:59:39.677Z,27.30
2018-05-26T12:02:05.966Z,27.60
2018-05-26T12:04:32.257Z,28.20
2018-05-26T12:06:58.526Z,28.30
2018-05-26T12:09:24.782Z,29.30
2018-05-26T12:11:51.072Z,29.30
2018-05-26T12:14:17.337Z,30.10
2018-05-26T12:16:43.617Z,28.90
2018-05-26T12:19:10.637Z,28.10
2018-05-26T12:21:36.905Z,28.10
2018-05-26T12:24:03.978Z,29.60
2018-05-26T12:26:30.299Z,29.50
2018-05-26T12:28:57.325Z,28.70
2018-05-26T12:31:23.601Z,28.80
2018-05-26T12:33:49.874Z,28.90
2018-05-26T12:36:16.161Z,30.20
2018-05-26T12:38:43.149Z,29.40
2018-05-26T12:41:09.390Z,29.40
2018-05-26T12:43:35.705Z,29.70
2018-05-26T12:46:01.993Z,28.80
2018-05-26T12:48:28.301Z,29.40
2018-05-26T12:50:54.608Z,28.80
2018-05-26T12:53:20.929Z,28.30
2018-05-26T12:55:47.956Z,29.20
2018-05-26T12:58:14.269Z,29.00
2018-05-26T13:00:40.497Z,30.10
2018-05-26T13:03:06.746Z,28.80
2018-05-26T13:05:32.997Z,29.00
2018-05-26T13:07:59.272Z,28.40
2018-05-26T13:10:25.624Z,28.50
2018-05-26T13:12:51.865Z,29.00
2018-05-26T13:15:20.632Z,29.20
2018-05-26T13:17:46.902Z,29.90
2018-05-26T13:20:13.165Z,29.50
2018-05-26T13:22:39.449Z,31.60
2018-05-26T13:25:05.774Z,29.80
2018-05-26T13:27:32.050Z,29.70
2018-05-26T13:29:58.403Z,31.00
2018-05-26T13:32:24.717Z,30.00
2018-05-26T13:34:51.024Z,29.50
2018-05-26T13:37:17.332Z,32.50
2018-05-26T13:39:44.326Z,29.90
2018-05-26T13:42:10.617Z,29.80
2018-05-26T13:44:37.685Z,30.80
2018-05-26T13:47:03.957Z,30.80
2018-05-26T13:49:30.259Z,31.40
2018-05-26T13:51:57.331Z,30.50
2018-05-26T13:54:24.277Z,32.80
2018-05-26T13:56:52.055Z,32.60
2018-05-26T13:59:18.585Z,31.70
2018-05-26T14:01:44.853Z,33.30
2018-05-26T14:04:11.226Z,32.40
2018-05-26T14:06:37.501Z,31.50
2018-05-26T14:09:04.805Z,33.80
2018-05-26T14:11:31.061Z,33.10
2018-05-26T14:13:57.297Z,34.50
2018-05-26T14:16:24.347Z,33.20
2018-05-26T14:18:50.619Z,33.90
2018-05-26T14:21:16.904Z,35.40
2018-05-26T14:23:43.126Z,33.60
2018-05-26T14:26:09.412Z,35.30
2018-05-26T14:28:35.765Z,34.80
2018-05-26T14:31:02.019Z,35.30
2018-05-26T14:33:28.331Z,35.20
2018-05-26T14:35:54.557Z,36.20
2018-05-26T14:38:20.835Z,36.40
2018-05-26T14:40:47.109Z,35.20
2018-05-26T14:43:14.125Z,34.10
2018-05-26T14:45:40.388Z,34.10
2018-05-26T14:48:06.656Z,34.90
2018-05-26T14:50:33.210Z,34.80
2018-05-26T14:52:59.541Z,34.90
2018-05-26T14:55:25.789Z,34.30
2018-05-26T14:57:52.044Z,34.70
2018-05-26T15:00:18.354Z,35.20
2018-05-26T15:02:44.633Z,35.30
2018-05-26T15:05:11.639Z,35.50
2018-05-26T15:07:37.898Z,35.60
2018-05-26T15:10:04.197Z,34.30
2018-05-26T15:12:30.449Z,36.10
2018-05-26T15:14:56.721Z,34.10
2018-05-26T15:17:22.974Z,36.00
2018-05-26T15:19:49.253Z,34.50
2018-05-26T15:22:15.506Z,34.00
2018-05-26T15:24:42.028Z,35.50
2018-05-26T15:27:08.286Z,35.20
2018-05-26T15:29:34.573Z,35.80
2018-05-26T15:32:01.604Z,37.30
2018-05-26T15:34:27.898Z,37.40
2018-05-26T15:36:54.161Z,36.80
2018-05-26T15:39:20.402Z,35.30
2018-05-26T15:41:46.673Z,36.20
2018-05-26T15:44:13.702Z,36.00
2018-05-26T15:46:40.015Z,36.00
2018-05-26T15:49:06.291Z,36.60
2018-05-26T15:51:33.356Z,37.00
2018-05-26T15:53:59.640Z,37.00
2018-05-26T15:56:25.913Z,37.50
2018-05-26T15:58:52.205Z,37.20
2018-05-26T16:01:18.542Z,37.10
2018-05-26T16:03:44.837Z,38.60
2018-05-26T16:06:11.102Z,40.00
2018-05-26T16:08:37.413Z,38.60
2018-05-26T16:11:03.669Z,39.00
2018-05-26T16:13:29.997Z,39.90
2018-05-26T16:15:56.285Z,40.50
2018-05-26T16:18:22.569Z,41.30
2018-05-26T16:20:48.857Z,41.20
2018-05-26T16:23:15.175Z,40.40
2018-05-26T16:25:41.461Z,40.90
2018-05-26T16:28:07.784Z,42.20
2018-05-26T16:30:34.798Z,40.40
2018-05-26T16:33:01.111Z,40.40
2018-05-26T16:35:27.409Z,41.60
2018-05-26T16:37:54.418Z,40.40
2018-05-26T16:40:20.725Z,40.30
2018-05-26T16:42:46.969Z,40.80
2018-05-26T16:45:13.303Z,41.10
2018-05-26T16:47:39.574Z,40.30
2018-05-26T16:50:05.874Z,41.80
2018-05-26T16:52:32.166Z,41.20
2018-05-26T16:54:59.199Z,41.80
2018-05-26T16:57:26.235Z,42.20
2018-05-26T16:59:52.562Z,41.70
2018-05-26T17:02:18.817Z,41.30
2018-05-26T17:04:45.081Z,41.80
2018-05-26T17:07:11.439Z,41.90
2018-05-26T17:09:37.811Z,41.90
2018-05-26T17:12:04.128Z,41.90
2018-05-26T17:14:30.472Z,42.60
2018-05-26T17:16:56.785Z,43.00
2018-05-26T17:19:23.348Z,42.80
2018-05-26T17:21:49.689Z,43.50
2018-05-26T17:24:15.997Z,42.90
2018-05-26T17:26:42.275Z,43.90
2018-05-26T17:29:08.601Z,43.00
2018-05-26T17:31:34.843Z,42.40
2018-05-26T17:34:01.117Z,42.70
2018-05-26T17:36:28.126Z,42.70
2018-05-26T17:38:54.431Z,42.70
2018-05-26T17:41:20.757Z,43.30
2018-05-26T17:43:47.801Z,44.10
2018-05-26T17:46:14.849Z,44.40
2018-05-26T17:48:41.926Z,44.50
2018-05-26T17:51:08.222Z,44.40
2018-05-26T17:53:35.309Z,45.10
2018-05-26T17:56:02.346Z,45.00
2018-05-26T17:58:28.653Z,45.00
2018-05-26T18:00:55.014Z,45.80
2018-05-26T18:03:21.289Z,46.00
2018-05-26T18:05:47.579Z,46.60
2018-05-26T18:08:13.952Z,46.40
2018-05-26T18:10:40.202Z,46.80
2018-05-26T18:13:06.538Z,46.80
2018-05-26T18:15:32.825Z,46.80
2018-05-26T18:17:59.129Z,47.00
2018-05-26T18:20:25.412Z,47.30
2018-05-26T18:22:52.446Z,47.60
2018-05-26T18:25:18.749Z,47.50
2018-05-26T18:27:46.886Z,48.00
2018-05-26T18:30:13.898Z,48.30
2018-05-26T18:32:40.310Z,48.20
2018-05-26T18:35:06.549Z,48.60
2018-05-26T18:37:32.797Z,48.80
2018-05-26T18:39:59.086Z,48.90
2018-05-26T18:42:26.080Z,49.60
2018-05-26T18:44:52.462Z,49.50
2018-05-26T18:47:18.881Z,49.80
2018-05-26T18:49:45.229Z,50.30
2018-05-26T18:52:11.489Z,51.00
2018-05-26T18:54:37.781Z,51.80
2018-05-26T18:57:04.060Z,52.30
2018-05-26T18:59:31.123Z,53.80
2018-05-26T19:01:57.532Z,53.70
2018-05-26T19:04:23.780Z,54.20
2018-05-26T19:06:50.836Z,55.10
2018-05-26T19:09:17.893Z,55.70
2018-05-26T19:11:44.985Z,56.40
2018-05-26T19:14:11.284Z,56.40
2018-05-26T19:16:38.337Z,56.60
2018-05-26T19:19:04.649Z,56.60
2018-05-26T19:21:31.951Z,57.00
2018-05-26T19:23:58.282Z,57.80
2018-05-26T19:26:24.582Z,58.10
2018-05-26T19:28:50.898Z,58.20
2018-05-26T19:31:17.197Z,58.60
2018-05-26T19:33:43.636Z,59.10
2018-05-26T19:36:09.932Z,59.50
2018-05-26T19:38:36.237Z,59.70
2018-05-26T19:41:02.550Z,60.20
2018-05-26T19:43:28.830Z,60.00
2018-05-26T19:45:55.133Z,60.10
2018-05-26T19:48:21.414Z,60.30
2018-05-26T19:50:47.697Z,60.50
2018-05-26T19:53:14.013Z,61.00
2018-05-26T19:55:40.309Z,61.00
2018-05-26T19:58:07.414Z,61.90
2018-05-26T20:00:33.702Z,61.80
2018-05-26T20:02:59.980Z,62.00
2018-05-26T20:05:26.325Z,62.60
2018-05-26T20:07:52.613Z,63.00
2018-05-26T20:10:18.899Z,63.80
2018-05-26T20:12:45.200Z,64.20
2018-05-26T20:15:11.474Z,63.90
2018-05-26T20:17:37.838Z,64.70
2018-05-26T20:20:04.157Z,65.40
2018-05-26T20:22:30.424Z,65.90
2018-05-26T20:24:56.686Z,66.60
2018-05-26T20:27:24.080Z,68.60
2018-05-26T20:29:50.381Z,68.50
2018-05-26T20:32:17.439Z,68.70
2018-05-26T20:34:43.768Z,68.70
2018-05-26T20:37:10.074Z,68.50
2018-05-26T20:39:36.395Z,68.90
2018-05-26T20:42:02.737Z,69.50
2018-05-26T20:44:28.962Z,70.60
2018-05-26T20:46:55.233Z,70.50
2018-05-26T20:49:21.545Z,70.60
2018-05-26T20:51:47.841Z,71.50
2018-05-26T20:54:14.094Z,72.00
2018-05-26T20:56:40.427Z,73.30
2018-05-26T20:59:06.721Z,72.70
2018-05-26T21:01:33.036Z,72.60
2018-05-26T21:03:59.338Z,73.40
2018-05-26T21:06:25.672Z,72.30
2018-05-26T21:08:52.017Z,72.60
2018-05-26T21:11:18.265Z,73.90
2018-05-26T21:13:44.599Z,74.10
2018-05-26T21:16:10.886Z,75.20
2018-05-26T21:18:37.131Z,75.50
2018-05-26T21:21:03.427Z,75.50
2018-05-26T21:23:29.699Z,74.30
2018-05-26T21:25:56.759Z,75.80
2018-05-26T21:28:23.017Z,75.80
2018-05-26T21:30:49.302Z,76.50
2018-05-26T21:33:15.560Z,76.20
2018-05-26T21:35:42.555Z,75.90
2018-05-26T21:38:08.857Z,75.90
2018-05-26T21:40:35.187Z,76.50
2018-05-26T21:43:02.194Z,76.10
2018-05-26T21:45:28.500Z,76.10
2018-05-26T21:47:54.806Z,77.20
2018-05-26T21:50:21.870Z,77.70
2018-05-26T21:52:48.187Z,77.70
2018-05-26T21:55:14.488Z,77.70
2018-05-26T21:57:40.798Z,78.80
2018-05-26T22:00:07.034Z,79.80
2018-05-26T22:02:33.335Z,80.20
2018-05-26T22:04:59.670Z,80.60
2018-05-26T22:07:26.689Z,81.70
2018-05-26T22:09:52.950Z,81.70
2018-05-26T22:12:20.005Z,81.60
2018-05-26T22:14:47.017Z,81.20
2018-05-26T22:17:13.345Z,81.20
2018-05-26T22:19:39.673Z,80.60
2018-05-26T22:22:05.941Z,80.50
2018-05-26T22:24:32.242Z,80.90
2018-05-26T22:26:58.521Z,81.00
2018-05-26T22:29:24.790Z,81.50
2018-05-26T22:31:51.829Z,81.80
2018-05-26T22:34:18.853Z,82.60
2018-05-26T22:36:45.134Z,82.60
2018-05-26T22:39:11.530Z,82.90
2018-05-26T22:41:37.798Z,83.50
2018-05-26T22:44:04.827Z,83.10
2018-05-26T22:46:31.136Z,83.10
2018-05-26T22:48:57.417Z,83.80
2018-05-26T22:51:24.405Z,83.70
2018-05-26T22:53:50.699Z,83.70
2018-05-26T22:56:17.782Z,84.30
2018-05-26T22:58:44.117Z,84.40
2018-05-26T23:01:10.394Z,85.30
2018-05-26T23:03:36.669Z,86.50
2018-05-26T23:06:03.069Z,87.00
2018-05-26T23:08:29.381Z,87.30
2018-05-26T23:10:55.718Z,87.10
2018-05-26T23:13:22.010Z,85.00
2018-05-26T23:15:48.846Z,87.60
2018-05-26T23:18:15.207Z,87.30
2018-05-26T23:20:42.253Z,89.40
2018-05-26T23:23:09.301Z,86.40
2018-05-26T23:25:36.354Z,88.40
2018-05-26T23:28:03.418Z,83.90
2018-05-26T23:30:30.460Z,85.50
2018-05-26T23:32:57.484Z,85.60
2018-05-26T23:35:23.774Z,85.60
2018-05-26T23:37:50.084Z,87.30
2018-05-26T23:40:17.134Z,86.50
2018-05-26T23:42:43.398Z,86.40
2018-05-26T23:45:09.761Z,88.10
2018-05-26T23:47:36.024Z,87.60
2018-05-26T23:50:02.334Z,87.60
2018-05-26T23:52:28.642Z,88.40
2018-05-26T23:54:54.952Z,88.90
2018-05-26T23:57:22.027Z,88.40
2018-05-26T23:59:49.042Z,88.80
